sensor_id;sensor_type;location;lat;lon;timestamp;P1;durP1;ratioP1;P2;durP2;ratioP2
51332;SDS011;37417;48.118;11.734;2022-09-17T00:00:53;8.00;;;4.60;;
51332;SDS011;37417;48.118;11.734;2022-09-17T00:03:39;6.55;;;4.75;;
51332;SDS011;37417;48.118;11.734;2022-09-17T00:06:25;8.30;;;4.95;;
51332;SDS011;37417;48.118;11.734;2022-09-17T00:09:10;5.60;;;3.47;;
51332;SDS011;37417;48.118;11.734;2022-09-17T00:11:56;4.90;;;3.58;;
51332;SDS011;37417;48.118;11.734;2022-09-17T00:14:41;4.82;;;4.15;;
51332;SDS011;37417;48.118;11.734;2022-09-17T00:17:27;5.25;;;3.63;;
51332;SDS011;37417;48.118;11.734;2022-09-17T00:20:13;6.63;;;3.55;;
51332;SDS011;37417;48.118;11.734;2022-09-17T00:22:58;4.43;;;3.55;;
51332;SDS011;37417;48.118;11.734;2022-09-17T00:25:44;3.78;;;3.40;;
51332;SDS011;37417;48.118;11.734;2022-09-17T00:28:30;4.35;;;2.40;;
51332;SDS011;37417;48.118;11.734;2022-09-17T00:31:15;3.90;;;2.22;;
51332;SDS011;37417;48.118;11.734;2022-09-17T00:34:02;5.65;;;2.40;;
51332;SDS011;37417;48.118;11.734;2022-09-17T00:36:48;3.38;;;2.13;;
51332;SDS011;37417;48.118;11.734;2022-09-17T00:39:33;5.40;;;2.53;;
51332;SDS011;37417;48.118;11.734;2022-09-17T00:42:19;4.03;;;2.50;;
51332;SDS011;37417;48.118;11.734;2022-09-17T00:45:06;4.03;;;2.25;;
51332;SDS011;37417;48.118;11.734;2022-09-17T00:50:38;4.05;;;2.03;;
51332;SDS011;37417;48.118;11.734;2022-09-17T00:53:24;2.03;;;1.70;;
51332;SDS011;37417;48.118;11.734;2022-09-17T00:56:31;4.40;;;1.70;;
51332;SDS011;37417;48.118;11.734;2022-09-17T00:59:16;2.17;;;1.42;;
51332;SDS011;37417;48.118;11.734;2022-09-17T01:02:02;2.55;;;1.27;;
51332;SDS011;37417;48.118;11.734;2022-09-17T01:04:48;2.40;;;1.52;;
51332;SDS011;37417;48.118;11.734;2022-09-17T01:13:48;3.63;;;2.17;;
51332;SDS011;37417;48.118;11.734;2022-09-17T01:16:42;1.70;;;1.13;;
51332;SDS011;37417;48.118;11.734;2022-09-17T01:19:41;2.10;;;1.33;;
51332;SDS011;37417;48.118;11.734;2022-09-17T01:28:20;3.08;;;1.20;;
51332;SDS011;37417;48.118;11.734;2022-09-17T01:34:10;2.58;;;1.02;;
51332;SDS011;37417;48.118;11.734;2022-09-17T01:37:03;1.03;;;0.93;;
51332;SDS011;37417;48.118;11.734;2022-09-17T01:39:55;1.65;;;1.00;;
51332;SDS011;37417;48.118;11.734;2022-09-17T01:48:26;2.55;;;1.60;;
51332;SDS011;37417;48.118;11.734;2022-09-17T01:51:15;2.17;;;1.30;;
51332;SDS011;37417;48.118;11.734;2022-09-17T01:57:07;2.35;;;1.63;;
51332;SDS011;37417;48.118;11.734;2022-09-17T01:59:55;2.75;;;1.45;;
51332;SDS011;37417;48.118;11.734;2022-09-17T02:05:53;2.60;;;1.60;;
51332;SDS011;37417;48.118;11.734;2022-09-17T02:08:42;3.90;;;1.70;;
51332;SDS011;37417;48.118;11.734;2022-09-17T02:11:28;4.40;;;1.48;;
51332;SDS011;37417;48.118;11.734;2022-09-17T02:14:23;4.50;;;1.75;;
51332;SDS011;37417;48.118;11.734;2022-09-17T02:17:29;2.42;;;1.80;;
51332;SDS011;37417;48.118;11.734;2022-09-17T02:20:16;2.70;;;1.50;;
51332;SDS011;37417;48.118;11.734;2022-09-17T02:23:05;5.63;;;1.80;;
51332;SDS011;37417;48.118;11.734;2022-09-17T02:25:54;2.22;;;1.77;;
51332;SDS011;37417;48.118;11.734;2022-09-17T02:28:43;2.42;;;1.63;;
51332;SDS011;37417;48.118;11.734;2022-09-17T02:31:30;5.50;;;1.60;;
51332;SDS011;37417;48.118;11.734;2022-09-17T02:34:15;2.75;;;1.27;;
51332;SDS011;37417;48.118;11.734;2022-09-17T02:37:02;2.88;;;1.25;;
51332;SDS011;37417;48.118;11.734;2022-09-17T02:39:48;1.92;;;1.20;;
51332;SDS011;37417;48.118;11.734;2022-09-17T02:54:22;1.20;;;1.02;;
51332;SDS011;37417;48.118;11.734;2022-09-17T03:02:56;4.00;;;1.40;;
51332;SDS011;37417;48.118;11.734;2022-09-17T03:05:42;3.92;;;1.25;;
51332;SDS011;37417;48.118;11.734;2022-09-17T03:08:36;1.52;;;1.20;;
51332;SDS011;37417;48.118;11.734;2022-09-17T03:11:24;4.70;;;0.90;;
51332;SDS011;37417;48.118;11.734;2022-09-17T03:14:10;1.00;;;0.75;;
51332;SDS011;37417;48.118;11.734;2022-09-17T03:16:55;1.83;;;0.90;;
51332;SDS011;37417;48.118;11.734;2022-09-17T03:19:41;2.58;;;1.13;;
51332;SDS011;37417;48.118;11.734;2022-09-17T03:22:27;0.80;;;0.70;;
51332;SDS011;37417;48.118;11.734;2022-09-17T03:25:12;1.60;;;1.13;;
51332;SDS011;37417;48.118;11.734;2022-09-17T03:27:58;1.77;;;0.98;;
51332;SDS011;37417;48.118;11.734;2022-09-17T03:30:44;1.55;;;0.77;;
51332;SDS011;37417;48.118;11.734;2022-09-17T03:33:30;5.07;;;1.02;;
51332;SDS011;37417;48.118;11.734;2022-09-17T03:36:15;2.80;;;1.17;;
51332;SDS011;37417;48.118;11.734;2022-09-17T03:39:01;1.05;;;0.85;;
51332;SDS011;37417;48.118;11.734;2022-09-17T03:41:46;1.90;;;1.23;;
51332;SDS011;37417;48.118;11.734;2022-09-17T03:44:32;3.22;;;1.05;;
51332;SDS011;37417;48.118;11.734;2022-09-17T03:47:17;1.20;;;0.63;;
51332;SDS011;37417;48.118;11.734;2022-09-17T03:50:03;2.08;;;1.10;;
51332;SDS011;37417;48.118;11.734;2022-09-17T03:52:49;2.35;;;1.10;;
51332;SDS011;37417;48.118;11.734;2022-09-17T03:55:36;6.18;;;1.00;;
51332;SDS011;37417;48.118;11.734;2022-09-17T03:58:22;0.50;;;0.50;;
51332;SDS011;37417;48.118;11.734;2022-09-17T04:01:08;1.15;;;0.90;;
51332;SDS011;37417;48.118;11.734;2022-09-17T04:03:53;1.88;;;1.20;;
51332;SDS011;37417;48.118;11.734;2022-09-17T04:06:39;0.95;;;0.80;;
51332;SDS011;37417;48.118;11.734;2022-09-17T04:09:25;2.72;;;1.27;;
51332;SDS011;37417;48.118;11.734;2022-09-17T04:12:10;1.35;;;0.63;;
51332;SDS011;37417;48.118;11.734;2022-09-17T04:14:56;1.55;;;0.88;;
51332;SDS011;37417;48.118;11.734;2022-09-17T04:17:41;4.70;;;1.17;;
51332;SDS011;37417;48.118;11.734;2022-09-17T04:20:27;2.45;;;1.10;;
51332;SDS011;37417;48.118;11.734;2022-09-17T04:23:12;3.75;;;1.33;;
51332;SDS011;37417;48.118;11.734;2022-09-17T04:25:58;1.27;;;0.90;;
51332;SDS011;37417;48.118;11.734;2022-09-17T04:28:44;5.00;;;1.20;;
51332;SDS011;37417;48.118;11.734;2022-09-17T04:31:29;1.55;;;1.00;;
51332;SDS011;37417;48.118;11.734;2022-09-17T04:34:15;2.33;;;1.05;;
51332;SDS011;37417;48.118;11.734;2022-09-17T04:37:00;3.45;;;0.98;;
51332;SDS011;37417;48.118;11.734;2022-09-17T04:39:46;3.45;;;1.10;;
51332;SDS011;37417;48.118;11.734;2022-09-17T04:42:31;4.43;;;1.23;;
51332;SDS011;37417;48.118;11.734;2022-09-17T04:45:17;1.77;;;0.95;;
51332;SDS011;37417;48.118;11.734;2022-09-17T04:48:02;1.85;;;1.33;;
51332;SDS011;37417;48.118;11.734;2022-09-17T04:50:48;2.30;;;1.00;;
51332;SDS011;37417;48.118;11.734;2022-09-17T04:53:34;2.47;;;1.15;;
51332;SDS011;37417;48.118;11.734;2022-09-17T04:56:19;1.05;;;0.80;;
51332;SDS011;37417;48.118;11.734;2022-09-17T04:59:05;2.83;;;1.10;;
51332;SDS011;37417;48.118;11.734;2022-09-17T05:01:50;4.18;;;1.30;;
51332;SDS011;37417;48.118;11.734;2022-09-17T05:04:36;2.58;;;1.27;;
51332;SDS011;37417;48.118;11.734;2022-09-17T05:07:22;2.20;;;1.10;;
51332;SDS011;37417;48.118;11.734;2022-09-17T05:10:08;2.40;;;1.10;;
51332;SDS011;37417;48.118;11.734;2022-09-17T05:12:54;1.55;;;1.10;;
51332;SDS011;37417;48.118;11.734;2022-09-17T05:15:40;1.80;;;1.00;;
51332;SDS011;37417;48.118;11.734;2022-09-17T05:18:26;2.40;;;1.33;;
51332;SDS011;37417;48.118;11.734;2022-09-17T05:21:12;1.08;;;0.85;;
51332;SDS011;37417;48.118;11.734;2022-09-17T05:23:58;5.18;;;0.90;;
51332;SDS011;37417;48.118;11.734;2022-09-17T05:26:45;1.42;;;1.20;;
51332;SDS011;37417;48.118;11.734;2022-09-17T05:29:31;1.33;;;0.82;;
51332;SDS011;37417;48.118;11.734;2022-09-17T05:32:17;2.03;;;1.30;;
51332;SDS011;37417;48.118;11.734;2022-09-17T05:35:02;1.33;;;0.93;;
51332;SDS011;37417;48.118;11.734;2022-09-17T05:37:48;4.93;;;0.85;;
51332;SDS011;37417;48.118;11.734;2022-09-17T05:40:34;1.45;;;0.73;;
51332;SDS011;37417;48.118;11.734;2022-09-17T05:43:19;3.30;;;0.95;;
51332;SDS011;37417;48.118;11.734;2022-09-17T05:46:05;6.68;;;1.13;;
51332;SDS011;37417;48.118;11.734;2022-09-17T05:48:54;2.10;;;0.70;;
51332;SDS011;37417;48.118;11.734;2022-09-17T05:51:40;1.85;;;0.95;;
51332;SDS011;37417;48.118;11.734;2022-09-17T05:54:25;2.10;;;0.88;;
51332;SDS011;37417;48.118;11.734;2022-09-17T05:57:11;2.17;;;0.90;;
51332;SDS011;37417;48.118;11.734;2022-09-17T05:59:56;4.95;;;1.20;;
51332;SDS011;37417;48.118;11.734;2022-09-17T06:02:42;3.80;;;1.00;;
51332;SDS011;37417;48.118;11.734;2022-09-17T06:05:28;1.90;;;0.93;;
51332;SDS011;37417;48.118;11.734;2022-09-17T06:08:13;5.38;;;1.45;;
51332;SDS011;37417;48.118;11.734;2022-09-17T06:11:02;2.60;;;1.00;;
51332;SDS011;37417;48.118;11.734;2022-09-17T06:13:47;9.00;;;0.85;;
51332;SDS011;37417;48.118;11.734;2022-09-17T06:16:37;2.35;;;1.00;;
51332;SDS011;37417;48.118;11.734;2022-09-17T06:19:23;3.40;;;0.90;;
51332;SDS011;37417;48.118;11.734;2022-09-17T06:22:08;3.17;;;1.20;;
51332;SDS011;37417;48.118;11.734;2022-09-17T06:24:54;4.53;;;1.00;;
51332;SDS011;37417;48.118;11.734;2022-09-17T06:27:39;3.60;;;1.13;;
51332;SDS011;37417;48.118;11.734;2022-09-17T06:30:25;2.08;;;0.80;;
51332;SDS011;37417;48.118;11.734;2022-09-17T06:33:10;10.23;;;0.73;;
51332;SDS011;37417;48.118;11.734;2022-09-17T06:35:59;5.45;;;0.88;;
51332;SDS011;37417;48.118;11.734;2022-09-17T06:38:45;1.77;;;0.90;;
51332;SDS011;37417;48.118;11.734;2022-09-17T06:41:31;3.65;;;0.90;;
51332;SDS011;37417;48.118;11.734;2022-09-17T06:44:17;2.85;;;0.80;;
51332;SDS011;37417;48.118;11.734;2022-09-17T06:47:02;5.95;;;1.23;;
51332;SDS011;37417;48.118;11.734;2022-09-17T06:49:48;5.20;;;1.02;;
51332;SDS011;37417;48.118;11.734;2022-09-17T06:52:34;6.20;;;1.13;;
51332;SDS011;37417;48.118;11.734;2022-09-17T06:55:19;5.05;;;1.10;;
51332;SDS011;37417;48.118;11.734;2022-09-17T06:58:05;4.93;;;0.90;;
51332;SDS011;37417;48.118;11.734;2022-09-17T07:00:50;1.15;;;0.90;;
51332;SDS011;37417;48.118;11.734;2022-09-17T07:03:36;3.35;;;0.98;;
51332;SDS011;37417;48.118;11.734;2022-09-17T07:06:22;2.33;;;1.00;;
51332;SDS011;37417;48.118;11.734;2022-09-17T07:09:08;1.13;;;0.77;;
51332;SDS011;37417;48.118;11.734;2022-09-17T07:11:54;4.30;;;1.10;;
51332;SDS011;37417;48.118;11.734;2022-09-17T07:14:39;3.58;;;0.80;;
51332;SDS011;37417;48.118;11.734;2022-09-17T07:17:27;5.07;;;1.20;;
51332;SDS011;37417;48.118;11.734;2022-09-17T07:20:13;1.58;;;0.75;;
51332;SDS011;37417;48.118;11.734;2022-09-17T07:22:58;3.28;;;0.90;;
51332;SDS011;37417;48.118;11.734;2022-09-17T07:25:47;3.40;;;0.80;;
51332;SDS011;37417;48.118;11.734;2022-09-17T07:28:37;10.48;;;1.20;;
51332;SDS011;37417;48.118;11.734;2022-09-17T07:31:22;2.88;;;0.80;;
51332;SDS011;37417;48.118;11.734;2022-09-17T07:34:09;7.22;;;1.48;;
51332;SDS011;37417;48.118;11.734;2022-09-17T07:36:54;6.88;;;1.33;;
51332;SDS011;37417;48.118;11.734;2022-09-17T07:39:40;7.60;;;1.13;;
51332;SDS011;37417;48.118;11.734;2022-09-17T07:42:26;5.97;;;0.80;;
51332;SDS011;37417;48.118;11.734;2022-09-17T07:45:13;3.65;;;0.82;;
51332;SDS011;37417;48.118;11.734;2022-09-17T07:47:58;3.22;;;1.02;;
51332;SDS011;37417;48.118;11.734;2022-09-17T07:50:44;8.27;;;0.82;;
51332;SDS011;37417;48.118;11.734;2022-09-17T07:53:29;7.10;;;0.93;;
51332;SDS011;37417;48.118;11.734;2022-09-17T07:56:15;5.50;;;0.93;;
51332;SDS011;37417;48.118;11.734;2022-09-17T07:59:01;1.95;;;0.80;;
51332;SDS011;37417;48.118;11.734;2022-09-17T08:01:47;1.42;;;0.50;;
51332;SDS011;37417;48.118;11.734;2022-09-17T08:04:32;5.03;;;1.15;;
51332;SDS011;37417;48.118;11.734;2022-09-17T08:07:18;4.75;;;0.98;;
51332;SDS011;37417;48.118;11.734;2022-09-17T08:10:03;4.85;;;1.25;;
51332;SDS011;37417;48.118;11.734;2022-09-17T08:12:49;3.42;;;0.95;;
51332;SDS011;37417;48.118;11.734;2022-09-17T08:15:35;3.30;;;0.82;;
51332;SDS011;37417;48.118;11.734;2022-09-17T08:18:20;3.13;;;0.70;;
51332;SDS011;37417;48.118;11.734;2022-09-17T08:21:07;1.40;;;0.75;;
51332;SDS011;37417;48.118;11.734;2022-09-17T08:23:53;2.28;;;0.93;;
51332;SDS011;37417;48.118;11.734;2022-09-17T08:26:39;5.90;;;1.10;;
51332;SDS011;37417;48.118;11.734;2022-09-17T08:29:25;4.85;;;1.02;;
51332;SDS011;37417;48.118;11.734;2022-09-17T08:32:11;8.43;;;1.10;;
51332;SDS011;37417;48.118;11.734;2022-09-17T08:34:57;1.27;;;0.57;;
51332;SDS011;37417;48.118;11.734;2022-09-17T08:37:42;6.93;;;0.73;;
51332;SDS011;37417;48.118;11.734;2022-09-17T08:40:28;3.90;;;1.13;;
51332;SDS011;37417;48.118;11.734;2022-09-17T08:43:15;3.30;;;0.60;;
51332;SDS011;37417;48.118;11.734;2022-09-17T08:46:02;3.83;;;1.10;;
51332;SDS011;37417;48.118;11.734;2022-09-17T08:57:45;4.97;;;0.85;;
51332;SDS011;37417;48.118;11.734;2022-09-17T09:00:38;3.00;;;1.25;;
51332;SDS011;37417;48.118;11.734;2022-09-17T09:03:31;3.97;;;0.82;;
51332;SDS011;37417;48.118;11.734;2022-09-17T09:06:22;2.05;;;0.47;;
51332;SDS011;37417;48.118;11.734;2022-09-17T09:09:12;3.38;;;0.60;;
51332;SDS011;37417;48.118;11.734;2022-09-17T09:12:04;2.72;;;0.80;;
51332;SDS011;37417;48.118;11.734;2022-09-17T09:18:01;4.22;;;1.20;;
51332;SDS011;37417;48.118;11.734;2022-09-17T09:21:35;5.22;;;0.80;;
51332;SDS011;37417;48.118;11.734;2022-09-17T09:23:54;4.05;;;0.95;;
51332;SDS011;37417;48.118;11.734;2022-09-17T09:26:48;2.47;;;0.82;;
51332;SDS011;37417;48.118;11.734;2022-09-17T09:29:41;1.80;;;0.70;;
51332;SDS011;37417;48.118;11.734;2022-09-17T09:32:50;3.08;;;0.47;;
51332;SDS011;37417;48.118;11.734;2022-09-17T09:35:38;1.55;;;0.57;;
51332;SDS011;37417;48.118;11.734;2022-09-17T09:39:27;4.47;;;1.15;;
51332;SDS011;37417;48.118;11.734;2022-09-17T09:44:35;8.65;;;1.10;;
51332;SDS011;37417;48.118;11.734;2022-09-17T09:47:27;3.38;;;1.00;;
51332;SDS011;37417;48.118;11.734;2022-09-17T09:50:17;7.70;;;1.25;;
51332;SDS011;37417;48.118;11.734;2022-09-17T09:58:47;1.30;;;0.65;;
51332;SDS011;37417;48.118;11.734;2022-09-17T10:01:34;1.90;;;1.05;;
51332;SDS011;37417;48.118;11.734;2022-09-17T10:04:26;4.43;;;1.27;;
51332;SDS011;37417;48.118;11.734;2022-09-17T10:07:12;6.57;;;1.08;;
51332;SDS011;37417;48.118;11.734;2022-09-17T10:10:06;5.07;;;1.17;;
51332;SDS011;37417;48.118;11.734;2022-09-17T10:13:03;8.45;;;1.30;;
51332;SDS011;37417;48.118;11.734;2022-09-17T10:15:49;5.38;;;0.90;;
51332;SDS011;37417;48.118;11.734;2022-09-17T10:18:35;3.22;;;1.33;;
51332;SDS011;37417;48.118;11.734;2022-09-17T10:21:21;2.85;;;1.10;;
51332;SDS011;37417;48.118;11.734;2022-09-17T10:24:14;6.72;;;1.30;;
51332;SDS011;37417;48.118;11.734;2022-09-17T10:27:05;4.00;;;1.50;;
51332;SDS011;37417;48.118;11.734;2022-09-17T10:30:34;6.65;;;1.35;;
51332;SDS011;37417;48.118;11.734;2022-09-17T10:33:14;4.13;;;1.45;;
51332;SDS011;37417;48.118;11.734;2022-09-17T10:36:02;4.63;;;1.60;;
51332;SDS011;37417;48.118;11.734;2022-09-17T10:38:50;9.38;;;2.17;;
51332;SDS011;37417;48.118;11.734;2022-09-17T10:41:35;5.40;;;1.60;;
51332;SDS011;37417;48.118;11.734;2022-09-17T10:44:37;5.13;;;2.15;;
51332;SDS011;37417;48.118;11.734;2022-09-17T10:50:15;8.05;;;1.63;;
51332;SDS011;37417;48.118;11.734;2022-09-17T10:53:03;3.10;;;1.20;;
51332;SDS011;37417;48.118;11.734;2022-09-17T10:55:50;2.25;;;1.30;;
51332;SDS011;37417;48.118;11.734;2022-09-17T11:18:38;6.03;;;1.00;;
51332;SDS011;37417;48.118;11.734;2022-09-17T11:21:27;5.72;;;1.13;;
51332;SDS011;37417;48.118;11.734;2022-09-17T11:30:03;2.33;;;1.05;;
51332;SDS011;37417;48.118;11.734;2022-09-17T11:32:57;1.85;;;1.02;;
51332;SDS011;37417;48.118;11.734;2022-09-17T11:35:54;0.90;;;0.45;;
51332;SDS011;37417;48.118;11.734;2022-09-17T11:38:46;1.10;;;0.70;;
51332;SDS011;37417;48.118;11.734;2022-09-17T11:41:36;3.30;;;0.90;;
51332;SDS011;37417;48.118;11.734;2022-09-17T11:47:16;4.68;;;0.60;;
51332;SDS011;37417;48.118;11.734;2022-09-17T11:56:26;7.78;;;1.38;;
51332;SDS011;37417;48.118;11.734;2022-09-17T12:04:59;4.95;;;1.27;;
51332;SDS011;37417;48.118;11.734;2022-09-17T12:07:53;2.67;;;1.70;;
51332;SDS011;37417;48.118;11.734;2022-09-17T12:10:42;3.08;;;1.20;;
51332;SDS011;37417;48.118;11.734;2022-09-17T12:16:41;1.40;;;0.57;;
51332;SDS011;37417;48.118;11.734;2022-09-17T12:22:16;0.57;;;0.50;;
51332;SDS011;37417;48.118;11.734;2022-09-17T12:25:02;3.38;;;0.85;;
51332;SDS011;37417;48.118;11.734;2022-09-17T12:30:41;1.48;;;0.88;;
51332;SDS011;37417;48.118;11.734;2022-09-17T12:33:39;3.43;;;1.30;;
51332;SDS011;37417;48.118;11.734;2022-09-17T12:36:31;3.35;;;1.05;;
51332;SDS011;37417;48.118;11.734;2022-09-17T12:42:30;3.67;;;1.00;;
51332;SDS011;37417;48.118;11.734;2022-09-17T12:51:09;5.43;;;0.82;;
51332;SDS011;37417;48.118;11.734;2022-09-17T12:59:58;2.85;;;0.70;;
51332;SDS011;37417;48.118;11.734;2022-09-17T13:11:36;1.27;;;0.50;;
51332;SDS011;37417;48.118;11.734;2022-09-17T13:15:18;6.82;;;0.77;;
51332;SDS011;37417;48.118;11.734;2022-09-17T13:17:39;0.82;;;0.52;;
51332;SDS011;37417;48.118;11.734;2022-09-17T13:20:31;3.78;;;0.70;;
51332;SDS011;37417;48.118;11.734;2022-09-17T13:23:29;1.10;;;0.60;;
51332;SDS011;37417;48.118;11.734;2022-09-17T13:26:17;1.02;;;0.70;;
51332;SDS011;37417;48.118;11.734;2022-09-17T13:29:04;2.97;;;0.95;;
51332;SDS011;37417;48.118;11.734;2022-09-17T13:31:54;4.72;;;1.20;;
51332;SDS011;37417;48.118;11.734;2022-09-17T13:34:39;4.80;;;0.90;;
51332;SDS011;37417;48.118;11.734;2022-09-17T13:37:25;2.08;;;0.60;;
51332;SDS011;37417;48.118;11.734;2022-09-17T13:43:16;1.45;;;0.80;;
51332;SDS011;37417;48.118;11.734;2022-09-17T13:48:50;3.85;;;0.85;;
51332;SDS011;37417;48.118;11.734;2022-09-17T13:54:33;0.90;;;0.75;;
51332;SDS011;37417;48.118;11.734;2022-09-17T13:57:20;4.35;;;0.80;;
51332;SDS011;37417;48.118;11.734;2022-09-17T14:00:06;1.45;;;0.88;;
51332;SDS011;37417;48.118;11.734;2022-09-17T14:02:51;3.00;;;0.90;;
51332;SDS011;37417;48.118;11.734;2022-09-17T14:05:37;7.28;;;1.48;;
51332;SDS011;37417;48.118;11.734;2022-09-17T14:08:24;3.47;;;1.23;;
51332;SDS011;37417;48.118;11.734;2022-09-17T14:16:56;3.28;;;1.00;;
51332;SDS011;37417;48.118;11.734;2022-09-17T14:19:47;3.08;;;0.60;;
51332;SDS011;37417;48.118;11.734;2022-09-17T14:22:34;0.65;;;0.38;;
51332;SDS011;37417;48.118;11.734;2022-09-17T14:25:19;1.98;;;0.90;;
51332;SDS011;37417;48.118;11.734;2022-09-17T14:28:14;1.48;;;0.50;;
51332;SDS011;37417;48.118;11.734;2022-09-17T14:31:05;0.63;;;0.40;;
51332;SDS011;37417;48.118;11.734;2022-09-17T14:33:53;0.45;;;0.35;;
51332;SDS011;37417;48.118;11.734;2022-09-17T14:36:39;0.93;;;0.40;;
51332;SDS011;37417;48.118;11.734;2022-09-17T14:39:27;1.42;;;0.43;;
51332;SDS011;37417;48.118;11.734;2022-09-17T14:42:24;1.10;;;0.35;;
51332;SDS011;37417;48.118;11.734;2022-09-17T14:45:14;0.40;;;0.32;;
51332;SDS011;37417;48.118;11.734;2022-09-17T14:56:51;0.90;;;0.57;;
51332;SDS011;37417;48.118;11.734;2022-09-17T15:02:39;0.45;;;0.32;;
51332;SDS011;37417;48.118;11.734;2022-09-17T15:08:15;1.08;;;0.57;;
51332;SDS011;37417;48.118;11.734;2022-09-17T15:11:02;4.30;;;0.82;;
51332;SDS011;37417;48.118;11.734;2022-09-17T15:13:51;1.10;;;0.57;;
51332;SDS011;37417;48.118;11.734;2022-09-17T15:16:37;1.52;;;0.40;;
51332;SDS011;37417;48.118;11.734;2022-09-17T15:19:30;2.35;;;0.60;;
51332;SDS011;37417;48.118;11.734;2022-09-17T15:22:19;2.63;;;0.50;;
51332;SDS011;37417;48.118;11.734;2022-09-17T15:25:08;1.33;;;0.40;;
51332;SDS011;37417;48.118;11.734;2022-09-17T15:27:56;1.08;;;0.60;;
51332;SDS011;37417;48.118;11.734;2022-09-17T15:30:48;1.83;;;0.40;;
51332;SDS011;37417;48.118;11.734;2022-09-17T15:33:34;3.83;;;0.60;;
51332;SDS011;37417;48.118;11.734;2022-09-17T15:36:23;3.15;;;0.47;;
51332;SDS011;37417;48.118;11.734;2022-09-17T15:39:28;1.15;;;0.50;;
51332;SDS011;37417;48.118;11.734;2022-09-17T15:42:35;1.27;;;0.35;;
51332;SDS011;37417;48.118;11.734;2022-09-17T15:45:27;2.03;;;0.60;;
51332;SDS011;37417;48.118;11.734;2022-09-17T15:51:21;1.90;;;0.57;;
51332;SDS011;37417;48.118;11.734;2022-09-17T15:54:25;2.42;;;0.40;;
51332;SDS011;37417;48.118;11.734;2022-09-17T15:57:13;0.55;;;0.40;;
51332;SDS011;37417;48.118;11.734;2022-09-17T16:00:12;1.23;;;0.38;;
51332;SDS011;37417;48.118;11.734;2022-09-17T16:03:08;0.93;;;0.60;;
51332;SDS011;37417;48.118;11.734;2022-09-17T16:09:02;0.38;;;0.38;;
51332;SDS011;37417;48.118;11.734;2022-09-17T16:11:48;3.20;;;0.30;;
51332;SDS011;37417;48.118;11.734;2022-09-17T16:14:34;0.65;;;0.40;;
51332;SDS011;37417;48.118;11.734;2022-09-17T16:20:06;0.57;;;0.20;;
51332;SDS011;37417;48.118;11.734;2022-09-17T16:22:54;2.35;;;1.00;;
51332;SDS011;37417;48.118;11.734;2022-09-17T16:25:42;0.60;;;0.50;;
51332;SDS011;37417;48.118;11.734;2022-09-17T16:28:28;1.83;;;0.28;;
51332;SDS011;37417;48.118;11.734;2022-09-17T16:31:14;2.58;;;0.65;;
51332;SDS011;37417;48.118;11.734;2022-09-17T16:34:00;1.55;;;0.55;;
51332;SDS011;37417;48.118;11.734;2022-09-17T16:36:46;0.65;;;0.50;;
51332;SDS011;37417;48.118;11.734;2022-09-17T16:39:31;1.13;;;0.50;;
51332;SDS011;37417;48.118;11.734;2022-09-17T16:42:17;1.52;;;0.55;;
51332;SDS011;37417;48.118;11.734;2022-09-17T16:45:03;0.40;;;0.40;;
51332;SDS011;37417;48.118;11.734;2022-09-17T16:47:49;0.55;;;0.30;;
51332;SDS011;37417;48.118;11.734;2022-09-17T16:50:37;1.67;;;1.02;;
51332;SDS011;37417;48.118;11.734;2022-09-17T16:53:24;0.50;;;0.50;;
51332;SDS011;37417;48.118;11.734;2022-09-17T16:56:10;0.85;;;0.40;;
51332;SDS011;37417;48.118;11.734;2022-09-17T16:58:56;1.23;;;0.30;;
51332;SDS011;37417;48.118;11.734;2022-09-17T17:01:41;0.20;;;0.20;;
51332;SDS011;37417;48.118;11.734;2022-09-17T17:04:27;3.90;;;0.63;;
51332;SDS011;37417;48.118;11.734;2022-09-17T17:07:13;1.40;;;0.30;;
51332;SDS011;37417;48.118;11.734;2022-09-17T17:09:58;1.25;;;0.57;;
51332;SDS011;37417;48.118;11.734;2022-09-17T17:12:44;0.65;;;0.40;;
51332;SDS011;37417;48.118;11.734;2022-09-17T17:15:30;0.77;;;0.40;;
51332;SDS011;37417;48.118;11.734;2022-09-17T17:18:18;4.28;;;0.73;;
51332;SDS011;37417;48.118;11.734;2022-09-17T17:21:07;1.65;;;0.45;;
51332;SDS011;37417;48.118;11.734;2022-09-17T17:23:53;1.35;;;0.70;;
51332;SDS011;37417;48.118;11.734;2022-09-17T17:26:39;1.05;;;0.60;;
51332;SDS011;37417;48.118;11.734;2022-09-17T17:29:24;2.13;;;0.43;;
51332;SDS011;37417;48.118;11.734;2022-09-17T17:32:10;1.27;;;0.60;;
51332;SDS011;37417;48.118;11.734;2022-09-17T17:34:56;1.58;;;0.60;;
51332;SDS011;37417;48.118;11.734;2022-09-17T17:37:42;1.20;;;0.65;;
51332;SDS011;37417;48.118;11.734;2022-09-17T17:40:28;2.05;;;0.50;;
51332;SDS011;37417;48.118;11.734;2022-09-17T17:43:13;1.08;;;0.75;;
51332;SDS011;37417;48.118;11.734;2022-09-17T17:45:59;1.00;;;0.55;;
51332;SDS011;37417;48.118;11.734;2022-09-17T17:51:30;1.10;;;0.45;;
51332;SDS011;37417;48.118;11.734;2022-09-17T17:54:16;0.60;;;0.50;;
51332;SDS011;37417;48.118;11.734;2022-09-17T17:57:01;1.05;;;0.60;;
51332;SDS011;37417;48.118;11.734;2022-09-17T17:59:47;1.17;;;0.85;;
51332;SDS011;37417;48.118;11.734;2022-09-17T18:02:33;0.30;;;0.20;;
51332;SDS011;37417;48.118;11.734;2022-09-17T18:05:18;0.73;;;0.35;;
51332;SDS011;37417;48.118;11.734;2022-09-17T18:08:04;0.45;;;0.45;;
51332;SDS011;37417;48.118;11.734;2022-09-17T18:10:51;2.42;;;0.70;;
51332;SDS011;37417;48.118;11.734;2022-09-17T18:13:37;0.40;;;0.25;;
51332;SDS011;37417;48.118;11.734;2022-09-17T18:16:23;0.85;;;0.35;;
51332;SDS011;37417;48.118;11.734;2022-09-17T18:19:09;0.77;;;0.38;;
51332;SDS011;37417;48.118;11.734;2022-09-17T18:21:55;2.80;;;0.70;;
51332;SDS011;37417;48.118;11.734;2022-09-17T18:24:41;0.70;;;0.55;;
51332;SDS011;37417;48.118;11.734;2022-09-17T18:27:26;1.88;;;0.43;;
51332;SDS011;37417;48.118;11.734;2022-09-17T18:30:12;1.48;;;0.52;;
51332;SDS011;37417;48.118;11.734;2022-09-17T18:32:58;12.95;;;1.13;;
51332;SDS011;37417;48.118;11.734;2022-09-17T18:35:45;0.80;;;0.55;;
51332;SDS011;37417;48.118;11.734;2022-09-17T18:38:31;0.65;;;0.40;;
51332;SDS011;37417;48.118;11.734;2022-09-17T18:41:17;0.20;;;0.20;;
51332;SDS011;37417;48.118;11.734;2022-09-17T18:44:02;1.73;;;0.77;;
51332;SDS011;37417;48.118;11.734;2022-09-17T18:46:48;1.10;;;0.60;;
51332;SDS011;37417;48.118;11.734;2022-09-17T18:49:35;0.95;;;0.63;;
51332;SDS011;37417;48.118;11.734;2022-09-17T18:52:20;1.92;;;0.47;;
51332;SDS011;37417;48.118;11.734;2022-09-17T19:00:39;0.83;;;0.50;;
51332;SDS011;37417;48.118;11.734;2022-09-17T19:03:25;4.07;;;0.45;;
51332;SDS011;37417;48.118;11.734;2022-09-17T19:06:12;1.95;;;0.50;;
51332;SDS011;37417;48.118;11.734;2022-09-17T19:08:59;1.70;;;0.68;;
51332;SDS011;37417;48.118;11.734;2022-09-17T19:11:45;2.15;;;0.80;;
51332;SDS011;37417;48.118;11.734;2022-09-17T19:14:31;0.57;;;0.40;;
51332;SDS011;37417;48.118;11.734;2022-09-17T19:17:16;0.68;;;0.50;;
51332;SDS011;37417;48.118;11.734;2022-09-17T19:20:02;1.70;;;0.50;;
51332;SDS011;37417;48.118;11.734;2022-09-17T19:22:48;4.18;;;0.77;;
51332;SDS011;37417;48.118;11.734;2022-09-17T19:25:34;0.70;;;0.45;;
51332;SDS011;37417;48.118;11.734;2022-09-17T19:28:20;4.15;;;1.10;;
51332;SDS011;37417;48.118;11.734;2022-09-17T19:31:06;0.55;;;0.55;;
51332;SDS011;37417;48.118;11.734;2022-09-17T19:33:52;0.73;;;0.40;;
51332;SDS011;37417;48.118;11.734;2022-09-17T19:36:38;1.08;;;0.68;;
51332;SDS011;37417;48.118;11.734;2022-09-17T19:39:24;1.10;;;0.60;;
51332;SDS011;37417;48.118;11.734;2022-09-17T19:42:09;1.33;;;0.68;;
51332;SDS011;37417;48.118;11.734;2022-09-17T19:44:55;0.90;;;0.50;;